createdAt,value
2019-04-26T00:01:53.840Z,0.77
2019-04-26T00:05:00.100Z,0.87
2019-04-26T00:08:05.315Z,2.33
2019-04-26T00:11:25.835Z,1.20
2019-04-26T00:15:02.039Z,1.13
2019-04-26T00:18:08.724Z,0.83
2019-04-26T00:21:14.065Z,0.63
2019-04-26T00:24:19.638Z,1.07
2019-04-26T00:27:24.809Z,1.10
2019-04-26T00:30:29.948Z,1.23
2019-04-26T00:33:35.152Z,1.00
2019-04-26T00:36:40.608Z,3.00
2019-04-26T00:39:45.737Z,3.23
2019-04-26T00:42:52.079Z,1.57
2019-04-26T00:45:58.885Z,2.70
2019-04-26T00:49:06.079Z,0.80
2019-04-26T00:52:13.002Z,1.27
2019-04-26T00:55:19.848Z,1.23
2019-04-26T00:58:26.577Z,0.93
2019-04-26T01:01:35.180Z,1.37
2019-04-26T01:04:40.363Z,2.60
2019-04-26T01:07:47.166Z,1.00
2019-04-26T01:10:52.247Z,2.10
2019-04-26T01:13:57.415Z,0.70
2019-04-26T01:17:02.538Z,0.60
2019-04-26T01:20:08.373Z,2.33
2019-04-26T01:23:17.423Z,2.00
2019-04-26T01:26:30.699Z,2.50
2019-04-26T01:29:37.518Z,0.90
2019-04-26T01:32:44.537Z,0.93
2019-04-26T01:35:50.595Z,1.07
2019-04-26T01:38:58.877Z,3.17
2019-04-26T01:42:11.652Z,0.60
2019-04-26T01:45:45.542Z,1.23
2019-04-26T01:48:57.070Z,1.03
2019-04-26T01:52:09.174Z,0.97
2019-04-26T01:55:14.465Z,1.27
2019-04-26T01:58:21.921Z,1.20
2019-04-26T02:01:49.709Z,1.70
2019-04-26T02:04:57.517Z,1.13
2019-04-26T02:08:02.694Z,1.03
2019-04-26T02:11:07.833Z,0.87
2019-04-26T02:14:13.561Z,1.23
2019-04-26T02:17:18.666Z,1.83
2019-04-26T02:21:13.737Z,1.77
2019-04-26T02:24:50.345Z,1.10
2019-04-26T02:27:55.470Z,2.53
2019-04-26T02:31:00.778Z,1.33
2019-04-26T02:34:07.911Z,1.63
2019-04-26T02:37:15.111Z,0.97
2019-04-26T02:40:20.398Z,2.63
2019-04-26T02:43:29.636Z,2.50
2019-04-26T02:46:50.100Z,1.50
2019-04-26T02:49:59.374Z,2.07
2019-04-26T02:53:35.351Z,1.67
2019-04-26T02:56:42.963Z,1.63
2019-04-26T02:59:51.074Z,1.70
2019-04-26T03:03:02.243Z,1.80
2019-04-26T03:06:07.610Z,3.83
2019-04-26T03:09:15.142Z,1.80
2019-04-26T03:12:24.157Z,1.70
2019-04-26T03:15:56.750Z,1.90
2019-04-26T03:19:26.909Z,2.13
2019-04-26T03:22:43.243Z,1.87
2019-04-26T03:26:19.702Z,4.80
2019-04-26T03:29:38.975Z,3.07
2019-04-26T03:33:20.521Z,1.90
2019-04-26T03:37:32.575Z,2.30
2019-04-26T03:41:02.850Z,2.87
2019-04-26T03:44:31.245Z,2.13
2019-04-26T03:47:43.742Z,2.60
2019-04-26T03:50:56.982Z,3.97
2019-04-26T03:54:10.697Z,3.47
2019-04-26T03:57:30.720Z,2.47
2019-04-26T04:00:47.819Z,2.37
2019-04-26T04:03:58.963Z,4.10
2019-04-26T04:07:07.293Z,3.47
2019-04-26T04:10:19.304Z,4.13
2019-04-26T04:13:55.494Z,4.13
2019-04-26T04:17:28.001Z,4.03
2019-04-26T04:21:34.077Z,2.70
2019-04-26T04:24:50.796Z,3.00
2019-04-26T04:28:06.388Z,2.50
2019-04-26T04:31:19.339Z,2.83
2019-04-26T04:34:37.660Z,3.13
2019-04-26T04:38:05.535Z,3.97
2019-04-26T04:41:17.487Z,3.43
2019-04-26T04:45:22.370Z,3.83
2019-04-26T04:48:48.454Z,4.03
2019-04-26T04:52:24.291Z,3.03
2019-04-26T04:55:42.931Z,3.60
2019-04-26T04:58:53.446Z,3.27
2019-04-26T05:02:32.044Z,5.80
2019-04-26T05:06:07.349Z,4.00
2019-04-26T05:09:10.449Z,5.07
2019-04-26T05:12:23.952Z,6.57
2019-04-26T05:15:54.917Z,5.03
2019-04-26T05:19:35.983Z,5.20
2019-04-26T05:23:28.334Z,4.37
2019-04-26T05:27:22.492Z,5.33
2019-04-26T05:31:12.357Z,5.17
2019-04-26T05:34:35.285Z,6.90
2019-04-26T05:38:01.527Z,5.63
2019-04-26T05:41:35.746Z,4.97
2019-04-26T05:45:30.058Z,4.40
2019-04-26T05:49:25.220Z,4.60
2019-04-26T05:53:15.183Z,5.80
2019-04-26T05:56:46.352Z,5.83
2019-04-26T06:00:32.857Z,4.87
2019-04-26T06:04:15.655Z,5.80
2019-04-26T06:07:37.927Z,5.50
2019-04-26T06:10:59.971Z,5.03
2019-04-26T06:14:48.824Z,6.30
2019-04-26T06:18:14.292Z,6.57
2019-04-26T06:21:44.193Z,5.30
2019-04-26T06:25:20.255Z,8.90
2019-04-26T06:28:37.858Z,6.37
2019-04-26T06:32:04.707Z,7.53
2019-04-26T06:35:16.961Z,6.83
2019-04-26T06:39:12.040Z,7.63
2019-04-26T06:43:01.278Z,7.10
2019-04-26T06:47:02.634Z,6.63
2019-04-26T06:50:20.148Z,6.70
2019-04-26T06:54:15.539Z,6.37
2019-04-26T06:57:59.966Z,6.83
2019-04-26T07:01:24.750Z,6.23
2019-04-26T07:05:08.965Z,5.57
2019-04-26T07:08:30.039Z,5.50
2019-04-26T07:12:44.534Z,7.47
2019-04-26T07:16:22.373Z,5.67
2019-04-26T07:20:02.483Z,4.93
2019-04-26T07:24:01.192Z,4.73
2019-04-26T07:27:33.942Z,5.03
2019-04-26T07:30:50.222Z,5.70
2019-04-26T07:34:36.176Z,4.67
2019-04-26T07:38:46.333Z,4.70
2019-04-26T07:42:45.745Z,4.00
2019-04-26T07:46:22.290Z,5.07
2019-04-26T07:50:09.887Z,4.83
2019-04-26T07:53:46.608Z,4.90
2019-04-26T07:57:39.037Z,5.00
2019-04-26T08:00:53.571Z,4.27
2019-04-26T08:04:07.334Z,4.77
2019-04-26T08:07:19.431Z,4.20
2019-04-26T08:10:27.501Z,4.43
2019-04-26T08:13:35.598Z,3.97
2019-04-26T08:17:06.563Z,3.07
2019-04-26T08:20:34.668Z,3.90
2019-04-26T08:24:01.744Z,3.63
2019-04-26T08:27:22.557Z,3.70
2019-04-26T08:30:23.799Z,4.13
2019-04-26T08:33:36.525Z,5.37
2019-04-26T08:36:50.487Z,6.07
2019-04-26T08:39:57.722Z,3.63
2019-04-26T08:43:30.844Z,3.70
2019-04-26T08:46:47.587Z,3.43
2019-04-26T08:50:02.543Z,2.93
2019-04-26T08:53:09.402Z,2.67
2019-04-26T08:56:17.508Z,2.70
2019-04-26T08:59:26.723Z,2.50
2019-04-26T09:02:55.151Z,2.67
2019-04-26T09:06:34.648Z,2.40
2019-04-26T09:09:42.971Z,2.93
2019-04-26T09:12:51.235Z,2.20
2019-04-26T09:16:14.632Z,2.50
2019-04-26T09:19:19.871Z,2.60
2019-04-26T09:22:40.602Z,2.37
2019-04-26T09:25:58.739Z,2.80
2019-04-26T09:29:30.232Z,3.87
2019-04-26T09:32:41.609Z,2.33
2019-04-26T09:35:46.877Z,2.30
2019-04-26T09:38:52.074Z,1.97
2019-04-26T09:42:01.216Z,4.03
2019-04-26T09:45:27.539Z,2.70
2019-04-26T09:48:51.900Z,2.20
2019-04-26T09:51:57.310Z,2.00
2019-04-26T09:55:02.476Z,2.13
2019-04-26T09:58:08.704Z,4.30
2019-04-26T10:01:14.113Z,2.63
2019-04-26T10:04:19.270Z,1.47
2019-04-26T10:07:24.491Z,1.40
2019-04-26T10:10:35.174Z,1.57
2019-04-26T10:13:43.578Z,2.70
2019-04-26T10:17:03.600Z,1.47
2019-04-26T10:20:08.837Z,1.37
2019-04-26T10:23:15.040Z,1.37
2019-04-26T10:26:27.740Z,1.50
2019-04-26T10:29:30.181Z,1.50
2019-04-26T10:32:35.465Z,1.47
2019-04-26T10:35:40.707Z,1.40
2019-04-26T10:38:45.994Z,1.60
2019-04-26T10:41:51.106Z,1.53
2019-04-26T10:44:56.300Z,1.70
2019-04-26T10:48:01.467Z,1.30
2019-04-26T10:51:07.277Z,1.67
2019-04-26T10:54:18.785Z,1.60
2019-04-26T10:57:36.887Z,2.80
2019-04-26T11:00:43.385Z,1.60
2019-04-26T11:03:48.576Z,2.07
2019-04-26T11:06:53.688Z,2.17
2019-04-26T11:09:58.990Z,2.20
2019-04-26T11:13:04.537Z,3.17
2019-04-26T11:16:09.742Z,2.67
2019-04-26T11:19:14.960Z,3.60
2019-04-26T11:22:29.022Z,3.30
2019-04-26T11:25:28.235Z,2.50
2019-04-26T11:28:33.979Z,2.43
2019-04-26T11:31:39.286Z,2.50
2019-04-26T11:34:44.412Z,2.30
2019-04-26T11:37:55.097Z,3.93
2019-04-26T11:41:05.913Z,2.33
2019-04-26T11:44:04.553Z,2.70
2019-04-26T11:47:09.767Z,1.93
2019-04-26T11:50:16.086Z,3.53
2019-04-26T11:53:21.711Z,2.23
2019-04-26T11:56:26.877Z,4.90
2019-04-26T11:59:32.054Z,2.60
2019-04-26T12:02:38.565Z,2.40
2019-04-26T12:06:06.311Z,2.93
2019-04-26T12:09:22.795Z,6.53
2019-04-26T12:12:27.964Z,1.80
2019-04-26T12:15:33.134Z,2.63
2019-04-26T12:18:40.186Z,1.40
2019-04-26T12:21:45.311Z,2.43
2019-04-26T12:24:50.590Z,2.50
2019-04-26T12:27:55.946Z,2.30
2019-04-26T12:31:01.163Z,2.20
2019-04-26T12:34:07.522Z,1.67
2019-04-26T12:37:19.776Z,2.93
2019-04-26T12:40:19.683Z,2.53
2019-04-26T12:43:26.178Z,6.10
2019-04-26T12:46:37.447Z,2.13
2019-04-26T12:49:42.832Z,3.27
2019-04-26T12:52:51.404Z,3.50
2019-04-26T12:55:58.166Z,2.40
2019-04-26T12:59:01.789Z,2.40
2019-04-26T13:02:06.996Z,2.50
2019-04-26T13:05:14.533Z,3.27
2019-04-26T13:08:19.445Z,2.60
2019-04-26T13:11:49.083Z,2.53
2019-04-26T13:15:16.824Z,3.57
2019-04-26T13:18:22.269Z,6.43
2019-04-26T13:21:27.479Z,4.13
2019-04-26T13:24:35.469Z,4.10
2019-04-26T13:27:41.646Z,3.83
2019-04-26T13:30:46.429Z,3.40
2019-04-26T13:33:51.557Z,3.17
2019-04-26T13:36:59.136Z,2.60
2019-04-26T13:40:03.482Z,3.90
2019-04-26T13:43:09.167Z,2.70
2019-04-26T13:46:45.800Z,2.93
2019-04-26T13:50:02.573Z,2.73
2019-04-26T13:53:08.299Z,3.03
2019-04-26T13:56:14.340Z,3.40
2019-04-26T13:59:19.449Z,3.30
2019-04-26T14:02:25.653Z,3.50
2019-04-26T14:05:30.840Z,3.67
2019-04-26T14:08:36.004Z,3.87
2019-04-26T14:11:41.297Z,3.50
2019-04-26T14:14:46.530Z,9.00
2019-04-26T14:17:51.666Z,2.90
2019-04-26T14:20:59.046Z,2.60
2019-04-26T14:24:25.819Z,3.80
2019-04-26T14:27:53.174Z,2.93
2019-04-26T14:30:58.378Z,3.60
2019-04-26T14:34:05.394Z,18.13
2019-04-26T14:37:11.264Z,28.30
2019-04-26T14:40:17.909Z,27.37
2019-04-26T14:43:23.557Z,8.93
2019-04-26T14:46:28.819Z,3.57
2019-04-26T14:49:39.219Z,3.50
2019-04-26T14:52:40.990Z,4.07
2019-04-26T14:55:46.122Z,3.70
2019-04-26T14:58:52.262Z,3.60
2019-04-26T15:02:19.341Z,3.50
2019-04-26T15:05:46.553Z,4.03
2019-04-26T15:08:53.099Z,4.67
2019-04-26T15:12:01.223Z,4.03
2019-04-26T15:15:05.736Z,4.10
2019-04-26T15:18:12.304Z,5.27
2019-04-26T15:21:17.502Z,4.80
2019-04-26T15:24:23.040Z,5.33
2019-04-26T15:27:32.253Z,6.23
2019-04-26T15:30:43.134Z,5.00
2019-04-26T15:33:48.567Z,5.27
2019-04-26T15:36:50.148Z,5.93
2019-04-26T15:40:13.385Z,4.93
2019-04-26T15:43:42.825Z,4.73
2019-04-26T15:47:16.601Z,5.27
2019-04-26T15:50:50.234Z,4.70
2019-04-26T15:53:49.771Z,5.63
2019-04-26T15:56:56.120Z,6.23
2019-04-26T16:00:03.873Z,4.57
2019-04-26T16:03:10.112Z,5.33
2019-04-26T16:06:15.287Z,6.83
2019-04-26T16:09:22.944Z,6.63
2019-04-26T16:12:28.450Z,7.90
2019-04-26T16:15:33.952Z,6.20
2019-04-26T16:18:39.147Z,6.10
2019-04-26T16:21:44.314Z,7.87
2019-04-26T16:24:51.163Z,7.40
2019-04-26T16:28:14.297Z,8.17
2019-04-26T16:31:42.194Z,7.63
2019-04-26T16:34:48.789Z,7.10
2019-04-26T16:37:54.133Z,7.10
2019-04-26T16:40:59.299Z,6.87
2019-04-26T16:44:04.590Z,7.13
2019-04-26T16:47:09.970Z,9.03
2019-04-26T16:50:23.246Z,7.63
2019-04-26T16:53:37.696Z,7.17
2019-04-26T16:56:29.824Z,6.70
2019-04-26T16:59:34.989Z,10.10
2019-04-26T17:02:40.200Z,8.33
2019-04-26T17:05:48.393Z,8.50
2019-04-26T17:08:58.628Z,11.60
2019-04-26T17:11:59.360Z,11.60
2019-04-26T17:15:04.964Z,14.53
2019-04-26T17:18:10.170Z,8.07
2019-04-26T17:21:17.521Z,7.97
2019-04-26T17:24:46.231Z,8.23
2019-04-26T17:27:48.796Z,7.30
2019-04-26T17:30:54.058Z,8.43
2019-04-26T17:33:59.250Z,8.07
2019-04-26T17:37:11.707Z,7.47
2019-04-26T17:40:11.507Z,8.90
2019-04-26T17:43:16.659Z,9.40
2019-04-26T17:46:21.882Z,10.60
2019-04-26T17:49:28.915Z,11.63
2019-04-26T17:52:36.190Z,10.87
2019-04-26T17:55:41.487Z,11.37
2019-04-26T17:58:52.364Z,10.67
2019-04-26T18:02:00.837Z,9.83
2019-04-26T18:05:03.367Z,9.40
2019-04-26T18:08:31.578Z,10.80
2019-04-26T18:11:19.681Z,8.93
2019-04-26T18:14:22.062Z,9.83
2019-04-26T18:17:50.187Z,10.20
2019-04-26T18:21:05.725Z,9.40
2019-04-26T18:24:10.884Z,11.50
2019-04-26T18:27:16.100Z,10.60
2019-04-26T18:30:21.323Z,10.30
2019-04-26T18:33:26.531Z,13.63
2019-04-26T18:36:33.275Z,14.53
2019-04-26T18:39:38.537Z,14.13
2019-04-26T18:42:43.731Z,10.30
2019-04-26T18:45:50.516Z,13.00
2019-04-26T18:48:55.717Z,11.17
2019-04-26T18:52:00.847Z,11.63
2019-04-26T18:55:16.445Z,11.27
2019-04-26T18:58:21.587Z,11.57
2019-04-26T19:01:26.767Z,12.23
2019-04-26T19:04:33.487Z,11.33
2019-04-26T19:07:38.982Z,12.43
2019-04-26T19:10:44.256Z,12.57
2019-04-26T19:14:06.316Z,11.97
2019-04-26T19:17:25.989Z,12.60
2019-04-26T19:20:34.994Z,17.40
2019-04-26T19:23:41.547Z,14.60
2019-04-26T19:26:50.022Z,11.40
2019-04-26T19:29:54.648Z,9.90
2019-04-26T19:32:59.844Z,11.53
2019-04-26T19:36:05.212Z,11.80
2019-04-26T19:39:12.015Z,11.03
2019-04-26T19:42:19.117Z,17.60
2019-04-26T19:45:39.515Z,14.53
2019-04-26T19:49:03.440Z,13.27
2019-04-26T19:52:18.566Z,12.33
2019-04-26T19:55:47.436Z,10.43
2019-04-26T19:58:56.963Z,13.63
2019-04-26T20:01:57.756Z,14.67
2019-04-26T20:05:06.681Z,15.10
2019-04-26T20:08:11.945Z,13.43
2019-04-26T20:11:18.718Z,12.57
2019-04-26T20:14:39.405Z,13.77
2019-04-26T20:17:31.357Z,12.37
2019-04-26T20:20:36.576Z,14.73
2019-04-26T20:23:43.821Z,13.57
2019-04-26T20:26:48.869Z,15.50
2019-04-26T20:29:55.020Z,16.63
2019-04-26T20:33:01.774Z,15.77
2019-04-26T20:36:07.067Z,13.33
2019-04-26T20:39:12.582Z,14.40
2019-04-26T20:42:17.810Z,14.97
2019-04-26T20:45:22.977Z,15.43
2019-04-26T20:48:32.944Z,16.53
2019-04-26T20:51:36.005Z,15.33
2019-04-26T20:54:41.701Z,16.30
2019-04-26T20:57:48.037Z,17.63
2019-04-26T21:00:54.505Z,17.23
2019-04-26T21:03:59.937Z,18.10
2019-04-26T21:07:06.839Z,16.20
2019-04-26T21:10:15.217Z,17.03
2019-04-26T21:13:18.973Z,17.97
2019-04-26T21:16:24.309Z,17.77
2019-04-26T21:19:32.727Z,16.67
2019-04-26T21:22:36.404Z,18.87
2019-04-26T21:25:53.577Z,18.20
2019-04-26T21:29:20.173Z,17.27
2019-04-26T21:32:33.231Z,17.53
2019-04-26T21:35:44.514Z,17.77
2019-04-26T21:39:11.516Z,17.40
2019-04-26T21:42:17.291Z,16.73
2019-04-26T21:45:28.422Z,16.43
2019-04-26T21:48:32.757Z,14.07
2019-04-26T21:51:39.190Z,16.83
2019-04-26T21:54:44.499Z,13.90
2019-04-26T21:57:49.689Z,14.27
2019-04-26T22:01:15.680Z,16.00
2019-04-26T22:04:21.025Z,16.83
2019-04-26T22:07:26.294Z,15.93
2019-04-26T22:10:44.619Z,16.10
2019-04-26T22:13:59.149Z,18.33
2019-04-26T22:17:29.107Z,15.47
2019-04-26T22:20:56.072Z,16.53
2019-04-26T22:24:19.334Z,20.10
2019-04-26T22:27:25.374Z,16.37
2019-04-26T22:30:30.783Z,16.97
2019-04-26T22:33:36.058Z,16.90
2019-04-26T22:36:41.252Z,15.50
2019-04-26T22:39:46.446Z,18.87
2019-04-26T22:42:55.834Z,18.47
2019-04-26T22:46:27.018Z,20.20
2019-04-26T22:49:30.090Z,19.33
2019-04-26T22:52:35.295Z,19.33
2019-04-26T22:55:40.580Z,20.10
2019-04-26T22:58:45.806Z,18.60
2019-04-26T23:01:53.623Z,18.77
2019-04-26T23:05:00.569Z,18.67
2019-04-26T23:08:07.139Z,17.10
2019-04-26T23:11:13.451Z,21.83
2019-04-26T23:14:40.753Z,22.17
2019-04-26T23:17:57.879Z,20.07
2019-04-26T23:21:12.040Z,25.87
2019-04-26T23:24:18.952Z,19.50
2019-04-26T23:27:24.340Z,20.70
2019-04-26T23:30:31.715Z,15.87
2019-04-26T23:33:37.574Z,15.33
2019-04-26T23:36:43.702Z,17.27
2019-04-26T23:39:50.978Z,21.17
2019-04-26T23:42:55.818Z,16.13
2019-04-26T23:46:01.209Z,17.67
2019-04-26T23:49:06.390Z,14.03
2019-04-26T23:52:14.554Z,14.73
2019-04-26T23:55:18.581Z,12.40
2019-04-26T23:58:23.701Z,13.17
